sensor_id;sensor_type;location;lat;lon;timestamp;temperature;humidity
28175;SHT30;59417;44.788;10.334;2023-07-20T00:02:07;28.55;53.35
28175;SHT30;59417;44.788;10.334;2023-07-20T00:04:33;28.67;53.15
28175;SHT30;59417;44.788;10.334;2023-07-20T00:06:59;28.75;52.92
28175;SHT30;59417;44.788;10.334;2023-07-20T00:09:27;28.64;53.30
28175;SHT30;59417;44.788;10.334;2023-07-20T00:11:53;28.69;53.25
28175;SHT30;59417;44.788;10.334;2023-07-20T00:14:21;28.69;53.75
28175;SHT30;59417;44.788;10.334;2023-07-20T00:16:50;28.67;54.01
28175;SHT30;59417;44.788;10.334;2023-07-20T00:19:25;28.61;54.13
28175;SHT30;59417;44.788;10.334;2023-07-20T00:21:51;28.45;54.40
28175;SHT30;59417;44.788;10.334;2023-07-20T00:24:17;28.52;54.46
28175;SHT30;59417;44.788;10.334;2023-07-20T00:26:43;28.52;54.64
28175;SHT30;59417;44.788;10.334;2023-07-20T00:29:09;28.49;54.83
28175;SHT30;59417;44.788;10.334;2023-07-20T00:31:35;28.37;55.15
28175;SHT30;59417;44.788;10.334;2023-07-20T00:34:05;28.41;55.24
28175;SHT30;59417;44.788;10.334;2023-07-20T00:36:32;28.43;55.20
28175;SHT30;59417;44.788;10.334;2023-07-20T00:39:01;28.28;55.79
28175;SHT30;59417;44.788;10.334;2023-07-20T00:41:26;28.28;56.07
28175;SHT30;59417;44.788;10.334;2023-07-20T00:43:55;28.30;56.19
28175;SHT30;59417;44.788;10.334;2023-07-20T00:46:24;28.12;57.16
28175;SHT30;59417;44.788;10.334;2023-07-20T00:48:53;27.90;57.86
28175;SHT30;59417;44.788;10.334;2023-07-20T00:51:21;28.13;57.71
28175;SHT30;59417;44.788;10.334;2023-07-20T00:53:47;28.03;58.77
28175;SHT30;59417;44.788;10.334;2023-07-20T00:56:15;27.90;59.51
28175;SHT30;59417;44.788;10.334;2023-07-20T00:58:41;27.79;59.93
28175;SHT30;59417;44.788;10.334;2023-07-20T01:01:07;27.70;60.47
28175;SHT30;59417;44.788;10.334;2023-07-20T01:03:33;27.75;60.17
28175;SHT30;59417;44.788;10.334;2023-07-20T01:11:52;27.67;59.88
28175;SHT30;59417;44.788;10.334;2023-07-20T01:14:20;27.48;60.13
28175;SHT30;59417;44.788;10.334;2023-07-20T01:16:46;27.56;59.94
28175;SHT30;59417;44.788;10.334;2023-07-20T01:19:13;27.70;59.36
28175;SHT30;59417;44.788;10.334;2023-07-20T01:21:49;27.77;58.68
28175;SHT30;59417;44.788;10.334;2023-07-20T01:24:38;27.73;58.37
28175;SHT30;59417;44.788;10.334;2023-07-20T01:30:55;27.67;58.40
28175;SHT30;59417;44.788;10.334;2023-07-20T01:33:21;27.73;57.98
28175;SHT30;59417;44.788;10.334;2023-07-20T01:35:54;27.75;58.20
28175;SHT30;59417;44.788;10.334;2023-07-20T01:38:21;27.73;57.83
28175;SHT30;59417;44.788;10.334;2023-07-20T01:40:49;27.73;57.89
28175;SHT30;59417;44.788;10.334;2023-07-20T01:43:16;27.73;57.27
28175;SHT30;59417;44.788;10.334;2023-07-20T01:45:42;27.67;57.05
28175;SHT30;59417;44.788;10.334;2023-07-20T01:48:08;27.61;57.31
28175;SHT30;59417;44.788;10.334;2023-07-20T01:50:34;27.65;57.44
28175;SHT30;59417;44.788;10.334;2023-07-20T01:53:00;27.58;58.43
28175;SHT30;59417;44.788;10.334;2023-07-20T01:55:26;27.62;59.10
28175;SHT30;59417;44.788;10.334;2023-07-20T01:57:56;27.25;60.27
28175;SHT30;59417;44.788;10.334;2023-07-20T02:00:22;27.10;60.86
28175;SHT30;59417;44.788;10.334;2023-07-20T02:02:52;27.19;61.02
28175;SHT30;59417;44.788;10.334;2023-07-20T02:05:18;27.26;60.77
28175;SHT30;59417;44.788;10.334;2023-07-20T02:07:43;27.21;61.17
28175;SHT30;59417;44.788;10.334;2023-07-20T02:10:09;27.11;61.55
28175;SHT30;59417;44.788;10.334;2023-07-20T02:12:35;27.11;61.80
28175;SHT30;59417;44.788;10.334;2023-07-20T02:15:02;27.16;61.75
28175;SHT30;59417;44.788;10.334;2023-07-20T02:17:28;27.12;62.04
28175;SHT30;59417;44.788;10.334;2023-07-20T02:19:54;27.07;62.43
28175;SHT30;59417;44.788;10.334;2023-07-20T02:22:20;27.22;62.02
28175;SHT30;59417;44.788;10.334;2023-07-20T02:24:46;27.26;61.99
28175;SHT30;59417;44.788;10.334;2023-07-20T02:27:12;27.19;62.17
28175;SHT30;59417;44.788;10.334;2023-07-20T02:29:40;27.25;61.81
28175;SHT30;59417;44.788;10.334;2023-07-20T02:32:06;27.22;61.87
28175;SHT30;59417;44.788;10.334;2023-07-20T02:34:32;27.25;61.86
28175;SHT30;59417;44.788;10.334;2023-07-20T02:36:58;27.18;61.92
28175;SHT30;59417;44.788;10.334;2023-07-20T02:39:29;27.22;61.59
28175;SHT30;59417;44.788;10.334;2023-07-20T02:41:55;27.19;61.50
28175;SHT30;59417;44.788;10.334;2023-07-20T02:44:21;27.05;61.97
28175;SHT30;59417;44.788;10.334;2023-07-20T02:46:47;26.90;62.31
28175;SHT30;59417;44.788;10.334;2023-07-20T02:49:15;27.10;61.80
28175;SHT30;59417;44.788;10.334;2023-07-20T02:51:42;26.84;62.30
28175;SHT30;59417;44.788;10.334;2023-07-20T02:54:07;26.98;61.57
28175;SHT30;59417;44.788;10.334;2023-07-20T02:56:34;26.90;61.98
28175;SHT30;59417;44.788;10.334;2023-07-20T02:59:01;26.80;62.04
28175;SHT30;59417;44.788;10.334;2023-07-20T03:01:27;26.74;62.46
28175;SHT30;59417;44.788;10.334;2023-07-20T03:03:55;26.63;62.43
28175;SHT30;59417;44.788;10.334;2023-07-20T03:06:21;26.70;62.15
28175;SHT30;59417;44.788;10.334;2023-07-20T03:08:47;26.64;62.10
28175;SHT30;59417;44.788;10.334;2023-07-20T03:11:14;26.81;61.58
28175;SHT30;59417;44.788;10.334;2023-07-20T03:13:41;26.67;62.12
28175;SHT30;59417;44.788;10.334;2023-07-20T03:16:08;26.67;62.10
28175;SHT30;59417;44.788;10.334;2023-07-20T03:18:40;26.61;62.48
28175;SHT30;59417;44.788;10.334;2023-07-20T03:21:09;26.50;62.72
28175;SHT30;59417;44.788;10.334;2023-07-20T03:23:37;26.53;62.83
28175;SHT30;59417;44.788;10.334;2023-07-20T03:26:03;26.41;63.29
28175;SHT30;59417;44.788;10.334;2023-07-20T03:28:30;26.56;62.78
28175;SHT30;59417;44.788;10.334;2023-07-20T03:30:56;26.57;62.63
28175;SHT30;59417;44.788;10.334;2023-07-20T03:33:27;26.50;62.68
28175;SHT30;59417;44.788;10.334;2023-07-20T03:35:54;26.56;62.64
28175;SHT30;59417;44.788;10.334;2023-07-20T03:38:21;26.47;62.76
28175;SHT30;59417;44.788;10.334;2023-07-20T03:40:53;26.33;63.02
28175;SHT30;59417;44.788;10.334;2023-07-20T03:43:20;26.08;63.71
28175;SHT30;59417;44.788;10.334;2023-07-20T03:45:47;26.26;63.15
28175;SHT30;59417;44.788;10.334;2023-07-20T03:48:18;26.28;63.10
28175;SHT30;59417;44.788;10.334;2023-07-20T03:50:47;26.30;62.85
28175;SHT30;59417;44.788;10.334;2023-07-20T03:53:14;26.30;63.11
28175;SHT30;59417;44.788;10.334;2023-07-20T03:55:49;26.29;63.02
28175;SHT30;59417;44.788;10.334;2023-07-20T03:58:16;26.47;62.55
28175;SHT30;59417;44.788;10.334;2023-07-20T04:00:50;26.41;62.96
28175;SHT30;59417;44.788;10.334;2023-07-20T04:03:16;26.18;63.22
28175;SHT30;59417;44.788;10.334;2023-07-20T04:05:42;26.25;63.11
28175;SHT30;59417;44.788;10.334;2023-07-20T04:08:09;25.79;64.70
28175;SHT30;59417;44.788;10.334;2023-07-20T04:10:37;25.92;64.30
28175;SHT30;59417;44.788;10.334;2023-07-20T04:13:03;26.08;63.67
28175;SHT30;59417;44.788;10.334;2023-07-20T04:15:29;26.09;63.74
28175;SHT30;59417;44.788;10.334;2023-07-20T04:17:55;26.00;64.07
28175;SHT30;59417;44.788;10.334;2023-07-20T04:20:22;25.98;64.33
28175;SHT30;59417;44.788;10.334;2023-07-20T04:22:48;26.00;64.18
28175;SHT30;59417;44.788;10.334;2023-07-20T04:25:16;25.99;64.30
28175;SHT30;59417;44.788;10.334;2023-07-20T04:27:42;26.09;63.90
28175;SHT30;59417;44.788;10.334;2023-07-20T04:30:08;26.02;64.47
28175;SHT30;59417;44.788;10.334;2023-07-20T04:32:34;25.68;65.89
28175;SHT30;59417;44.788;10.334;2023-07-20T04:35:06;25.78;64.63
28175;SHT30;59417;44.788;10.334;2023-07-20T04:37:35;26.03;63.51
28175;SHT30;59417;44.788;10.334;2023-07-20T04:40:02;25.98;64.42
28175;SHT30;59417;44.788;10.334;2023-07-20T04:42:28;26.02;64.58
28175;SHT30;59417;44.788;10.334;2023-07-20T04:44:54;26.09;64.38
28175;SHT30;59417;44.788;10.334;2023-07-20T04:47:20;26.13;64.26
28175;SHT30;59417;44.788;10.334;2023-07-20T04:49:48;26.33;63.57
28175;SHT30;59417;44.788;10.334;2023-07-20T04:52:14;26.41;63.13
28175;SHT30;59417;44.788;10.334;2023-07-20T04:54:40;26.29;63.12
28175;SHT30;59417;44.788;10.334;2023-07-20T04:57:11;26.03;64.54
28175;SHT30;59417;44.788;10.334;2023-07-20T04:59:42;26.06;64.41
28175;SHT30;59417;44.788;10.334;2023-07-20T05:02:08;26.26;63.81
28175;SHT30;59417;44.788;10.334;2023-07-20T05:04:34;26.36;63.27
28175;SHT30;59417;44.788;10.334;2023-07-20T05:07:00;26.51;62.11
28175;SHT30;59417;44.788;10.334;2023-07-20T05:09:26;26.63;61.69
28175;SHT30;59417;44.788;10.334;2023-07-20T05:11:51;26.61;61.72
28175;SHT30;59417;44.788;10.334;2023-07-20T05:14:17;26.63;61.74
28175;SHT30;59417;44.788;10.334;2023-07-20T05:16:44;26.59;62.11
28175;SHT30;59417;44.788;10.334;2023-07-20T05:19:10;26.46;62.21
28175;SHT30;59417;44.788;10.334;2023-07-20T05:21:37;26.41;62.71
28175;SHT30;59417;44.788;10.334;2023-07-20T05:24:03;26.57;62.95
28175;SHT30;59417;44.788;10.334;2023-07-20T05:26:28;26.56;62.65
28175;SHT30;59417;44.788;10.334;2023-07-20T05:28:54;26.44;63.30
28175;SHT30;59417;44.788;10.334;2023-07-20T05:31:22;26.56;63.43
28175;SHT30;59417;44.788;10.334;2023-07-20T05:33:48;26.76;62.87
28175;SHT30;59417;44.788;10.334;2023-07-20T05:36:13;26.73;63.14
28175;SHT30;59417;44.788;10.334;2023-07-20T05:38:39;26.65;62.88
28175;SHT30;59417;44.788;10.334;2023-07-20T05:41:05;26.65;62.36
28175;SHT30;59417;44.788;10.334;2023-07-20T05:43:33;26.57;62.53
28175;SHT30;59417;44.788;10.334;2023-07-20T05:45:59;26.63;61.68
28175;SHT30;59417;44.788;10.334;2023-07-20T05:48:25;26.49;62.40
28175;SHT30;59417;44.788;10.334;2023-07-20T05:50:51;26.59;62.25
28175;SHT30;59417;44.788;10.334;2023-07-20T05:53:20;26.76;61.79
28175;SHT30;59417;44.788;10.334;2023-07-20T05:55:52;26.86;61.43
28175;SHT30;59417;44.788;10.334;2023-07-20T05:58:17;26.83;60.89
28175;SHT30;59417;44.788;10.334;2023-07-20T06:00:43;26.73;61.16
28175;SHT30;59417;44.788;10.334;2023-07-20T06:03:09;26.70;61.43
28175;SHT30;59417;44.788;10.334;2023-07-20T06:05:36;26.67;61.76
28175;SHT30;59417;44.788;10.334;2023-07-20T06:08:02;26.56;61.65
28175;SHT30;59417;44.788;10.334;2023-07-20T06:10:28;26.59;61.81
28175;SHT30;59417;44.788;10.334;2023-07-20T06:12:53;26.56;62.29
28175;SHT30;59417;44.788;10.334;2023-07-20T06:15:28;26.80;61.70
28175;SHT30;59417;44.788;10.334;2023-07-20T06:17:55;26.83;61.75
28175;SHT30;59417;44.788;10.334;2023-07-20T06:20:22;26.76;61.65
28175;SHT30;59417;44.788;10.334;2023-07-20T06:22:48;26.80;61.70
28175;SHT30;59417;44.788;10.334;2023-07-20T06:25:14;26.80;61.36
28175;SHT30;59417;44.788;10.334;2023-07-20T06:27:40;26.79;61.04
28175;SHT30;59417;44.788;10.334;2023-07-20T06:30:06;26.70;61.65
28175;SHT30;59417;44.788;10.334;2023-07-20T06:32:32;26.83;61.25
28175;SHT30;59417;44.788;10.334;2023-07-20T06:34:57;26.90;60.37
28175;SHT30;59417;44.788;10.334;2023-07-20T06:37:23;26.84;60.27
28175;SHT30;59417;44.788;10.334;2023-07-20T06:39:49;26.70;61.24
28175;SHT30;59417;44.788;10.334;2023-07-20T06:42:15;26.70;61.28
28175;SHT30;59417;44.788;10.334;2023-07-20T06:44:41;26.88;60.94
28175;SHT30;59417;44.788;10.334;2023-07-20T06:47:07;27.11;60.73
28175;SHT30;59417;44.788;10.334;2023-07-20T06:49:33;27.29;59.30
28175;SHT30;59417;44.788;10.334;2023-07-20T06:51:59;27.02;60.06
28175;SHT30;59417;44.788;10.334;2023-07-20T06:54:24;27.38;60.22
28175;SHT30;59417;44.788;10.334;2023-07-20T06:56:50;27.25;59.24
28175;SHT30;59417;44.788;10.334;2023-07-20T06:59:16;27.25;60.08
28175;SHT30;59417;44.788;10.334;2023-07-20T07:01:45;27.26;59.63
28175;SHT30;59417;44.788;10.334;2023-07-20T07:04:11;27.12;59.82
28175;SHT30;59417;44.788;10.334;2023-07-20T07:06:40;27.22;59.96
28175;SHT30;59417;44.788;10.334;2023-07-20T07:09:05;27.35;59.24
28175;SHT30;59417;44.788;10.334;2023-07-20T07:11:31;27.45;59.09
28175;SHT30;59417;44.788;10.334;2023-07-20T07:13:58;27.67;59.47
28175;SHT30;59417;44.788;10.334;2023-07-20T07:16:23;27.72;59.00
28175;SHT30;59417;44.788;10.334;2023-07-20T07:18:50;27.77;58.42
28175;SHT30;59417;44.788;10.334;2023-07-20T07:21:16;27.70;58.26
28175;SHT30;59417;44.788;10.334;2023-07-20T07:23:43;27.58;58.94
28175;SHT30;59417;44.788;10.334;2023-07-20T07:26:09;27.53;59.63
28175;SHT30;59417;44.788;10.334;2023-07-20T07:28:35;27.77;59.83
28175;SHT30;59417;44.788;10.334;2023-07-20T07:31:04;27.79;59.40
28175;SHT30;59417;44.788;10.334;2023-07-20T07:33:30;27.96;58.74
28175;SHT30;59417;44.788;10.334;2023-07-20T07:35:56;28.05;58.41
28175;SHT30;59417;44.788;10.334;2023-07-20T07:38:21;28.21;57.05
28175;SHT30;59417;44.788;10.334;2023-07-20T07:40:47;28.13;57.25
28175;SHT30;59417;44.788;10.334;2023-07-20T07:43:13;28.14;58.30
28175;SHT30;59417;44.788;10.334;2023-07-20T07:45:40;28.30;57.24
28175;SHT30;59417;44.788;10.334;2023-07-20T07:48:06;28.40;55.63
28175;SHT30;59417;44.788;10.334;2023-07-20T07:50:33;28.31;56.06
28175;SHT30;59417;44.788;10.334;2023-07-20T07:52:59;28.23;57.12
28175;SHT30;59417;44.788;10.334;2023-07-20T07:55:25;28.43;56.67
28175;SHT30;59417;44.788;10.334;2023-07-20T07:57:53;28.30;57.34
28175;SHT30;59417;44.788;10.334;2023-07-20T08:00:20;28.43;56.61
28175;SHT30;59417;44.788;10.334;2023-07-20T08:02:46;28.44;56.27
28175;SHT30;59417;44.788;10.334;2023-07-20T08:05:14;28.58;55.61
28175;SHT30;59417;44.788;10.334;2023-07-20T08:07:40;28.47;55.68
28175;SHT30;59417;44.788;10.334;2023-07-20T08:10:06;28.47;56.06
28175;SHT30;59417;44.788;10.334;2023-07-20T08:12:32;28.41;57.22
28175;SHT30;59417;44.788;10.334;2023-07-20T08:14:58;28.60;57.47
28175;SHT30;59417;44.788;10.334;2023-07-20T08:17:24;28.88;56.26
28175;SHT30;59417;44.788;10.334;2023-07-20T08:19:50;29.02;56.49
28175;SHT30;59417;44.788;10.334;2023-07-20T08:22:15;29.22;55.15
28175;SHT30;59417;44.788;10.334;2023-07-20T08:24:42;29.38;54.19
28175;SHT30;59417;44.788;10.334;2023-07-20T08:27:08;29.08;55.55
28175;SHT30;59417;44.788;10.334;2023-07-20T08:29:35;29.16;56.19
28175;SHT30;59417;44.788;10.334;2023-07-20T08:32:01;29.32;56.21
28175;SHT30;59417;44.788;10.334;2023-07-20T08:34:27;29.38;54.28
28175;SHT30;59417;44.788;10.334;2023-07-20T08:36:53;29.43;54.76
28175;SHT30;59417;44.788;10.334;2023-07-20T08:39:19;29.54;54.62
28175;SHT30;59417;44.788;10.334;2023-07-20T08:41:48;29.70;54.17
28175;SHT30;59417;44.788;10.334;2023-07-20T08:44:14;29.86;54.19
28175;SHT30;59417;44.788;10.334;2023-07-20T08:46:41;30.03;52.29
28175;SHT30;59417;44.788;10.334;2023-07-20T08:49:07;29.94;52.32
28175;SHT30;59417;44.788;10.334;2023-07-20T08:51:39;29.94;53.50
28175;SHT30;59417;44.788;10.334;2023-07-20T08:54:09;30.03;53.93
28175;SHT30;59417;44.788;10.334;2023-07-20T08:56:37;30.15;54.28
28175;SHT30;59417;44.788;10.334;2023-07-20T08:59:04;30.27;54.58
28175;SHT30;59417;44.788;10.334;2023-07-20T09:01:32;30.41;54.28
28175;SHT30;59417;44.788;10.334;2023-07-20T09:03:58;30.49;53.86
28175;SHT30;59417;44.788;10.334;2023-07-20T09:06:24;30.55;53.01
28175;SHT30;59417;44.788;10.334;2023-07-20T09:08:50;30.65;54.68
28175;SHT30;59417;44.788;10.334;2023-07-20T09:11:16;30.76;54.25
28175;SHT30;59417;44.788;10.334;2023-07-20T09:13:47;30.79;53.46
28175;SHT30;59417;44.788;10.334;2023-07-20T09:16:15;30.85;52.91
28175;SHT30;59417;44.788;10.334;2023-07-20T09:18:41;30.95;51.75
28175;SHT30;59417;44.788;10.334;2023-07-20T09:21:07;30.72;51.91
28175;SHT30;59417;44.788;10.334;2023-07-20T09:23:34;30.72;52.73
28175;SHT30;59417;44.788;10.334;2023-07-20T09:26:01;30.65;52.10
28175;SHT30;59417;44.788;10.334;2023-07-20T09:28:27;30.63;52.78
28175;SHT30;59417;44.788;10.334;2023-07-20T09:30:54;30.59;53.21
28175;SHT30;59417;44.788;10.334;2023-07-20T09:33:21;30.66;52.64
28175;SHT30;59417;44.788;10.334;2023-07-20T09:35:48;30.82;53.27
28175;SHT30;59417;44.788;10.334;2023-07-20T09:38:14;30.86;52.10
28175;SHT30;59417;44.788;10.334;2023-07-20T09:40:41;30.92;52.47
28175;SHT30;59417;44.788;10.334;2023-07-20T09:43:09;31.03;51.49
28175;SHT30;59417;44.788;10.334;2023-07-20T09:45:44;30.99;51.43
28175;SHT30;59417;44.788;10.334;2023-07-20T09:48:10;30.93;51.06
28175;SHT30;59417;44.788;10.334;2023-07-20T09:50:49;30.75;50.74
28175;SHT30;59417;44.788;10.334;2023-07-20T09:53:19;30.69;51.43
28175;SHT30;59417;44.788;10.334;2023-07-20T09:55:46;30.72;51.99
28175;SHT30;59417;44.788;10.334;2023-07-20T09:58:16;30.87;52.73
28175;SHT30;59417;44.788;10.334;2023-07-20T10:00:45;31.09;52.57
28175;SHT30;59417;44.788;10.334;2023-07-20T10:03:19;31.23;52.15
28175;SHT30;59417;44.788;10.334;2023-07-20T10:05:56;31.24;50.30
28175;SHT30;59417;44.788;10.334;2023-07-20T10:08:26;31.33;50.95
28175;SHT30;59417;44.788;10.334;2023-07-20T10:10:54;31.46;51.06
28175;SHT30;59417;44.788;10.334;2023-07-20T10:13:27;31.58;51.83
28175;SHT30;59417;44.788;10.334;2023-07-20T10:16:03;31.67;51.21
28175;SHT30;59417;44.788;10.334;2023-07-20T10:21:31;31.87;50.52
28175;SHT30;59417;44.788;10.334;2023-07-20T10:23:59;32.04;49.09
28175;SHT30;59417;44.788;10.334;2023-07-20T10:26:26;32.15;50.95
28175;SHT30;59417;44.788;10.334;2023-07-20T10:28:53;31.99;47.81
28175;SHT30;59417;44.788;10.334;2023-07-20T10:31:19;31.50;49.27
28175;SHT30;59417;44.788;10.334;2023-07-20T10:33:48;31.48;50.19
28175;SHT30;59417;44.788;10.334;2023-07-20T10:36:16;31.73;50.04
28175;SHT30;59417;44.788;10.334;2023-07-20T10:38:56;31.95;49.32
28175;SHT30;59417;44.788;10.334;2023-07-20T10:41:34;32.11;48.62
28175;SHT30;59417;44.788;10.334;2023-07-20T10:44:07;32.28;48.78
28175;SHT30;59417;44.788;10.334;2023-07-20T10:46:43;32.42;48.84
28175;SHT30;59417;44.788;10.334;2023-07-20T10:49:15;32.49;47.43
28175;SHT30;59417;44.788;10.334;2023-07-20T10:51:41;32.59;47.93
28175;SHT30;59417;44.788;10.334;2023-07-20T10:56:43;32.80;47.25
28175;SHT30;59417;44.788;10.334;2023-07-20T10:59:35;32.78;47.41
28175;SHT30;59417;44.788;10.334;2023-07-20T11:02:08;32.96;47.02
28175;SHT30;59417;44.788;10.334;2023-07-20T11:04:45;33.03;46.81
28175;SHT30;59417;44.788;10.334;2023-07-20T11:07:15;33.21;46.63
28175;SHT30;59417;44.788;10.334;2023-07-20T11:09:42;33.39;47.03
28175;SHT30;59417;44.788;10.334;2023-07-20T11:12:12;33.41;45.52
28175;SHT30;59417;44.788;10.334;2023-07-20T11:14:43;33.43;46.28
28175;SHT30;59417;44.788;10.334;2023-07-20T11:17:14;33.51;46.85
28175;SHT30;59417;44.788;10.334;2023-07-20T11:19:40;33.67;47.05
28175;SHT30;59417;44.788;10.334;2023-07-20T11:22:06;33.84;46.86
28175;SHT30;59417;44.788;10.334;2023-07-20T11:24:39;33.97;45.71
28175;SHT30;59417;44.788;10.334;2023-07-20T11:27:05;34.05;45.29
28175;SHT30;59417;44.788;10.334;2023-07-20T11:29:31;34.13;45.50
28175;SHT30;59417;44.788;10.334;2023-07-20T11:31:57;34.09;44.55
28175;SHT30;59417;44.788;10.334;2023-07-20T11:34:26;34.06;45.20
28175;SHT30;59417;44.788;10.334;2023-07-20T11:36:52;34.02;44.75
28175;SHT30;59417;44.788;10.334;2023-07-20T11:39:19;34.05;45.80
28175;SHT30;59417;44.788;10.334;2023-07-20T11:41:47;34.16;45.38
28175;SHT30;59417;44.788;10.334;2023-07-20T11:44:13;34.29;45.39
28175;SHT30;59417;44.788;10.334;2023-07-20T11:46:44;34.39;45.02
28175;SHT30;59417;44.788;10.334;2023-07-20T11:49:11;34.46;44.05
28175;SHT30;59417;44.788;10.334;2023-07-20T11:51:38;33.95;45.09
28175;SHT30;59417;44.788;10.334;2023-07-20T11:54:06;33.94;46.15
28175;SHT30;59417;44.788;10.334;2023-07-20T11:56:32;34.13;46.06
28175;SHT30;59417;44.788;10.334;2023-07-20T11:58:58;34.23;44.85
28175;SHT30;59417;44.788;10.334;2023-07-20T12:01:27;34.39;44.94
28175;SHT30;59417;44.788;10.334;2023-07-20T12:04:03;34.59;45.08
28175;SHT30;59417;44.788;10.334;2023-07-20T12:06:30;34.70;44.92
28175;SHT30;59417;44.788;10.334;2023-07-20T12:08:57;34.90;44.63
28175;SHT30;59417;44.788;10.334;2023-07-20T12:11:32;34.84;44.53
28175;SHT30;59417;44.788;10.334;2023-07-20T12:13:58;34.94;44.29
28175;SHT30;59417;44.788;10.334;2023-07-20T12:16:27;35.03;43.96
28175;SHT30;59417;44.788;10.334;2023-07-20T12:19:07;35.07;43.21
28175;SHT30;59417;44.788;10.334;2023-07-20T12:21:36;34.84;43.49
28175;SHT30;59417;44.788;10.334;2023-07-20T12:24:03;35.00;44.23
28175;SHT30;59417;44.788;10.334;2023-07-20T12:26:30;35.04;42.78
28175;SHT30;59417;44.788;10.334;2023-07-20T12:28:56;35.11;44.36
28175;SHT30;59417;44.788;10.334;2023-07-20T12:31:22;35.30;43.80
28175;SHT30;59417;44.788;10.334;2023-07-20T12:33:50;35.44;43.21
28175;SHT30;59417;44.788;10.334;2023-07-20T12:36:17;35.57;43.06
28175;SHT30;59417;44.788;10.334;2023-07-20T12:38:43;35.71;43.28
28175;SHT30;59417;44.788;10.334;2023-07-20T12:41:10;35.71;41.70
28175;SHT30;59417;44.788;10.334;2023-07-20T12:43:37;35.74;42.49
28175;SHT30;59417;44.788;10.334;2023-07-20T12:46:03;35.84;43.11
28175;SHT30;59417;44.788;10.334;2023-07-20T12:48:29;35.99;41.71
28175;SHT30;59417;44.788;10.334;2023-07-20T12:50:55;35.92;41.37
28175;SHT30;59417;44.788;10.334;2023-07-20T12:53:21;35.96;42.32
28175;SHT30;59417;44.788;10.334;2023-07-20T12:55:47;36.09;41.07
28175;SHT30;59417;44.788;10.334;2023-07-20T12:58:12;36.01;40.24
28175;SHT30;59417;44.788;10.334;2023-07-20T13:00:39;35.95;41.24
28175;SHT30;59417;44.788;10.334;2023-07-20T13:03:06;35.71;41.72
28175;SHT30;59417;44.788;10.334;2023-07-20T13:05:34;35.66;42.96
28175;SHT30;59417;44.788;10.334;2023-07-20T13:08:01;35.65;43.01
28175;SHT30;59417;44.788;10.334;2023-07-20T13:10:28;35.73;42.80
28175;SHT30;59417;44.788;10.334;2023-07-20T13:12:54;35.77;42.00
28175;SHT30;59417;44.788;10.334;2023-07-20T13:15:20;35.81;42.44
28175;SHT30;59417;44.788;10.334;2023-07-20T13:17:46;35.78;42.25
28175;SHT30;59417;44.788;10.334;2023-07-20T13:20:12;35.82;42.16
28175;SHT30;59417;44.788;10.334;2023-07-20T13:22:40;35.66;42.36
28175;SHT30;59417;44.788;10.334;2023-07-20T13:25:09;35.55;41.76
28175;SHT30;59417;44.788;10.334;2023-07-20T13:27:35;35.59;42.12
28175;SHT30;59417;44.788;10.334;2023-07-20T13:30:02;35.61;42.88
28175;SHT30;59417;44.788;10.334;2023-07-20T13:32:32;35.64;42.97
28175;SHT30;59417;44.788;10.334;2023-07-20T13:34:59;35.53;42.57
28175;SHT30;59417;44.788;10.334;2023-07-20T13:37:25;35.62;42.28
28175;SHT30;59417;44.788;10.334;2023-07-20T13:39:52;35.70;43.23
28175;SHT30;59417;44.788;10.334;2023-07-20T13:42:18;35.70;41.34
28175;SHT30;59417;44.788;10.334;2023-07-20T13:44:44;35.34;43.24
28175;SHT30;59417;44.788;10.334;2023-07-20T13:47:29;35.30;42.32
28175;SHT30;59417;44.788;10.334;2023-07-20T13:50:02;35.27;41.96
28175;SHT30;59417;44.788;10.334;2023-07-20T13:58:56;35.26;42.45
28175;SHT30;59417;44.788;10.334;2023-07-20T14:01:23;35.34;43.32
28175;SHT30;59417;44.788;10.334;2023-07-20T14:03:53;35.37;43.81
28175;SHT30;59417;44.788;10.334;2023-07-20T14:06:19;35.23;42.64
28175;SHT30;59417;44.788;10.334;2023-07-20T14:08:45;35.23;44.46
28175;SHT30;59417;44.788;10.334;2023-07-20T14:11:14;35.20;43.40
28175;SHT30;59417;44.788;10.334;2023-07-20T14:13:40;35.31;43.16
28175;SHT30;59417;44.788;10.334;2023-07-20T14:16:06;35.38;43.39
28175;SHT30;59417;44.788;10.334;2023-07-20T14:18:33;35.35;42.94
28175;SHT30;59417;44.788;10.334;2023-07-20T14:21:00;35.41;43.71
28175;SHT30;59417;44.788;10.334;2023-07-20T14:23:29;35.44;43.81
28175;SHT30;59417;44.788;10.334;2023-07-20T14:25:55;35.43;42.12
28175;SHT30;59417;44.788;10.334;2023-07-20T14:28:21;35.31;42.96
28175;SHT30;59417;44.788;10.334;2023-07-20T14:30:48;35.29;43.19
28175;SHT30;59417;44.788;10.334;2023-07-20T14:33:14;35.30;43.35
28175;SHT30;59417;44.788;10.334;2023-07-20T14:35:40;35.35;43.01
28175;SHT30;59417;44.788;10.334;2023-07-20T14:38:06;35.37;42.44
28175;SHT30;59417;44.788;10.334;2023-07-20T14:40:32;35.27;42.92
28175;SHT30;59417;44.788;10.334;2023-07-20T14:42:59;35.21;43.56
28175;SHT30;59417;44.788;10.334;2023-07-20T14:45:28;35.15;42.98
28175;SHT30;59417;44.788;10.334;2023-07-20T14:47:54;35.13;43.85
28175;SHT30;59417;44.788;10.334;2023-07-20T14:50:20;35.15;43.31
28175;SHT30;59417;44.788;10.334;2023-07-20T14:52:46;35.20;42.99
28175;SHT30;59417;44.788;10.334;2023-07-20T14:55:12;35.18;43.81
28175;SHT30;59417;44.788;10.334;2023-07-20T14:57:38;35.21;44.24
28175;SHT30;59417;44.788;10.334;2023-07-20T15:00:05;35.21;44.37
28175;SHT30;59417;44.788;10.334;2023-07-20T15:02:39;35.27;44.10
28175;SHT30;59417;44.788;10.334;2023-07-20T15:05:08;35.23;43.92
28175;SHT30;59417;44.788;10.334;2023-07-20T15:07:35;35.21;43.49
28175;SHT30;59417;44.788;10.334;2023-07-20T15:10:01;35.20;43.54
28175;SHT30;59417;44.788;10.334;2023-07-20T15:12:27;35.29;43.55
28175;SHT30;59417;44.788;10.334;2023-07-20T15:15:12;35.20;43.75
28175;SHT30;59417;44.788;10.334;2023-07-20T15:17:39;35.21;44.29
28175;SHT30;59417;44.788;10.334;2023-07-20T15:20:06;35.20;44.15
28175;SHT30;59417;44.788;10.334;2023-07-20T15:22:33;35.21;44.05
28175;SHT30;59417;44.788;10.334;2023-07-20T15:25:00;35.21;43.75
28175;SHT30;59417;44.788;10.334;2023-07-20T15:27:26;35.18;44.05
28175;SHT30;59417;44.788;10.334;2023-07-20T15:29:52;35.18;43.70
28175;SHT30;59417;44.788;10.334;2023-07-20T15:32:18;35.18;44.15
28175;SHT30;59417;44.788;10.334;2023-07-20T15:34:44;35.15;44.18
28175;SHT30;59417;44.788;10.334;2023-07-20T15:37:13;35.15;44.44
28175;SHT30;59417;44.788;10.334;2023-07-20T15:39:39;35.15;44.70